地図

経路データ

SID SEASON NUMBER BASIN SUBBASIN NAME ISO_TIME NATURE LAT LON WMO_WIND WMO_PRES WMO_AGENCY TRACK_TYPE DIST2LAND LANDFALL IFLAG USA_AGENCY USA_ATCF_ID USA_LAT USA_LON USA_RECORD USA_STATUS USA_WIND USA_PRES USA_SSHS USA_R34_NE USA_R34_SE USA_R34_SW USA_R34_NW USA_R50_NE USA_R50_SE USA_R50_SW USA_R50_NW USA_R64_NE USA_R64_SE USA_R64_SW USA_R64_NW USA_POCI USA_ROCI USA_RMW USA_EYE TOKYO_LAT TOKYO_LON TOKYO_GRADE TOKYO_WIND TOKYO_PRES TOKYO_R50_DIR TOKYO_R50_LONG TOKYO_R50_SHORT TOKYO_R30_DIR TOKYO_R30_LONG TOKYO_R30_SHORT TOKYO_LAND CMA_LAT CMA_LON CMA_CAT CMA_WIND CMA_PRES HKO_LAT HKO_LON HKO_CAT HKO_WIND HKO_PRES NEWDELHI_LAT NEWDELHI_LON NEWDELHI_GRADE NEWDELHI_WIND NEWDELHI_PRES NEWDELHI_CI NEWDELHI_DP NEWDELHI_POCI REUNION_LAT REUNION_LON REUNION_TYPE REUNION_WIND REUNION_PRES REUNION_TNUM REUNION_CI REUNION_RMW REUNION_R34_NE REUNION_R34_SE REUNION_R34_SW REUNION_R34_NW REUNION_R50_NE REUNION_R50_SE REUNION_R50_SW REUNION_R50_NW REUNION_R64_NE REUNION_R64_SE REUNION_R64_SW REUNION_R64_NW BOM_LAT BOM_LON BOM_TYPE BOM_WIND BOM_PRES BOM_TNUM BOM_CI BOM_RMW BOM_R34_NE BOM_R34_SE BOM_R34_SW BOM_R34_NW BOM_R50_NE BOM_R50_SE BOM_R50_SW BOM_R50_NW BOM_R64_NE BOM_R64_SE BOM_R64_SW BOM_R64_NW BOM_ROCI BOM_POCI BOM_EYE BOM_POS_METHOD BOM_PRES_METHOD NADI_LAT NADI_LON NADI_CAT NADI_WIND NADI_PRES WELLINGTON_LAT WELLINGTON_LON WELLINGTON_WIND WELLINGTON_PRES DS824_LAT DS824_LON DS824_STAGE DS824_WIND DS824_PRES TD9636_LAT TD9636_LON TD9636_STAGE TD9636_WIND TD9636_PRES TD9635_LAT TD9635_LON TD9635_WIND TD9635_PRES TD9635_ROCI NEUMANN_LAT NEUMANN_LON NEUMANN_CLASS NEUMANN_WIND NEUMANN_PRES MLC_LAT MLC_LON MLC_CLASS MLC_WIND MLC_PRES USA_GUST BOM_GUST BOM_GUST_PER REUNION_GUST REUNION_GUST_PER USA_SEAHGT USA_SEARAD_NE USA_SEARAD_SE USA_SEARAD_SW USA_SEARAD_NW STORM_SPEED STORM_DIR
1926249N10129 1926 40 WP MM NOT_NAMED 1926-09-06 10:00:00 NR 9.90000 129.000 main 317 302 __________O___ -1 9.90000 129.000 7 7 318
1926249N10129 1926 40 WP MM NOT_NAMED 1926-09-06 12:00:00 NR 10.0769 128.839 main 302 290 __________P___ -1 10.0769 128.839 7 7 318
1926249N10129 1926 40 WP MM NOT_NAMED 1926-09-06 15:00:00 NR 10.3447 128.595 main 290 276 __________P___ -1 10.3447 128.595 7 7 318
1926249N10129 1926 40 WP MM NOT_NAMED 1926-09-06 18:00:00 NR 10.6186 128.346 main 276 251 __________P___ -1 10.6186 128.346 7 8 318
1926249N10129 1926 40 WP MM NOT_NAMED 1926-09-06 21:00:00 NR 10.9025 128.088 main 251 240 __________P___ -1 10.9025 128.088 7 8 318
1926249N10129 1926 40 WP MM NOT_NAMED 1926-09-06 22:00:00 NR 11.0000 128.000 main 240 219 __________O___ -1 11.0000 128.000 3 8 318
1926249N10129 1926 40 WP MM NOT_NAMED 1926-09-07 00:00:00 NR 11.2000 127.820 main 219 193 __________P___ -1 11.2000 127.820 3 8 319
1926249N10129 1926 40 WP MM NOT_NAMED 1926-09-07 03:00:00 NR 11.5125 127.543 main 193 181 __________P___ -1 11.5125 127.543 3 8 320
1926249N10129 1926 40 WP MM NOT_NAMED 1926-09-07 06:00:00 NR 11.8400 127.264 main 186 163 __________P___ -1 11.8400 127.264 3 9 321
1926249N10129 1926 40 WP MM NOT_NAMED 1926-09-07 09:00:00 NR 12.1825 126.989 main 163 152 __________P___ -1 12.1825 126.989 3 9 322
1926249N10129 1926 40 WP MM NOT_NAMED 1926-09-07 10:00:00 NR 12.3000 126.900 main 152 134 __________O___ -1 12.3000 126.900 4 9 324
1926249N10129 1926 40 WP MM NOT_NAMED 1926-09-07 12:00:00 NR 12.5280 126.730 main 134 127 __________P___ -1 12.5280 126.730 4 9 325
1926249N10129 1926 40 WP MM NOT_NAMED 1926-09-07 15:00:00 NR 12.8825 126.481 main 133 125 __________P___ -1 12.8825 126.481 4 9 326
1926249N10129 1926 40 WP MM NOT_NAMED 1926-09-07 18:00:00 NR 13.2574 126.235 main 140 140 __________P___ -1 13.2574 126.235 4 9 328
1926249N10129 1926 40 WP MM NOT_NAMED 1926-09-07 21:00:00 NR 13.6591 125.985 main 159 154 __________P___ -1 13.6591 125.985 4 10 329
1926249N10129 1926 40 WP MM NOT_NAMED 1926-09-07 22:00:00 NR 13.8000 125.900 main 162 142 __________O___ -1 13.8000 125.900 4 10 330
1926249N10129 1926 40 WP MM NOT_NAMED 1926-09-08 00:00:00 NR 14.0938 125.727 main 142 131 __________P___ -1 14.0938 125.727 4 11 331
1926249N10129 1926 40 WP MM NOT_NAMED 1926-09-08 03:00:00 NR 14.5597 125.462 main 142 133 __________P___ -1 14.5597 125.462 4 11 331
1926249N10129 1926 40 WP MM NOT_NAMED 1926-09-08 06:00:00 NR 15.0448 125.187 main 148 150 __________P___ -1 15.0448 125.187 4 11 331
1926249N10129 1926 40 WP MM NOT_NAMED 1926-09-08 09:00:00 NR 15.5367 124.899 main 179 187 __________P___ -1 15.5367 124.899 4 11 330
1926249N10129 1926 40 WP MM NOT_NAMED 1926-09-08 10:00:00 NR 15.7000 124.800 main 197 197 __________O___ -1 15.7000 124.800 4 12 330
1926249N10129 1926 40 WP MM NOT_NAMED 1926-09-08 12:00:00 NR 16.0349 124.597 main 226 196 __________P___ -1 16.0349 124.597 4 12 329
1926249N10129 1926 40 WP MM NOT_NAMED 1926-09-08 15:00:00 NR 16.5378 124.281 main 196 159 __________P___ -1 16.5378 124.281 4 12 328
1926249N10129 1926 40 WP MM NOT_NAMED 1926-09-08 18:00:00 NR 17.0218 123.952 main 159 125 __________P___ -1 17.0218 123.952 4 11 325
1926249N10129 1926 40 WP MM NOT_NAMED 1926-09-08 21:00:00 NR 17.4651 123.614 main 129 121 __________P___ -1 17.4651 123.614 4 11 323
1926249N10129 1926 40 WP MM NOT_NAMED 1926-09-08 22:00:00 NR 17.6000 123.500 main 121 110 __________O___ -1 17.6000 123.500 4 10 322
1926249N10129 1926 40 WP MM NOT_NAMED 1926-09-09 00:00:00 NR 17.8526 123.293 main 114 74 __________P___ -1 17.8526 123.293 4 9 320
1926249N10129 1926 40 WP MM NOT_NAMED 1926-09-09 03:00:00 NR 18.1879 122.977 main 74 33 __________P___ -1 18.1879 122.977 4 9 315
1926249N10129 1926 40 WP MM NOT_NAMED 1926-09-09 06:00:00 NR 18.4766 122.635 main 33 23 __________P___ -1 18.4766 122.635 4 9 308
1926249N10129 1926 40 WP MM NOT_NAMED 1926-09-09 09:00:00 NR 18.7250 122.244 main 33 33 __________P___ -1 18.7250 122.244 4 9 303
1926249N10129 1926 40 WP MM NOT_NAMED 1926-09-09 10:00:00 NR 18.8000 122.100 main 44 44 __________O___ -1 18.8000 122.100 4 10 293
1926249N10129 1926 40 WP MM NOT_NAMED 1926-09-09 12:00:00 NR 18.9330 121.739 main 54 54 __________P___ -1 18.9330 121.739 4 11 288
1926249N10129 1926 40 WP MM NOT_NAMED 1926-09-09 15:00:00 NR 19.1002 121.148 main 59 56 __________P___ -1 19.1002 121.148 4 12 286
1926249N10129 1926 40 WP MM NOT_NAMED 1926-09-09 18:00:00 NR 19.2559 120.558 main 81 84 __________P___ -1 19.2559 120.558 4 11 288
1926249N10129 1926 40 WP MM NOT_NAMED 1926-09-09 21:00:00 NR 19.4315 120.043 main 122 122 __________P___ -1 19.4315 120.043 4 10 291
1926249N10129 1926 40 WP MM NOT_NAMED 1926-09-09 22:00:00 NR 19.5000 119.900 main 138 138 __________O___ -1 19.5000 119.900 4 8 304
1926249N10129 1926 40 WP MM NOT_NAMED 1926-09-10 00:00:00 NR 19.6602 119.687 main 168 168 __________P___ -1 19.6602 119.687 4 7 316
1926249N10129 1926 40 WP MM NOT_NAMED 1926-09-10 03:00:00 NR 19.9326 119.462 main 199 199 __________P___ -1 19.9326 119.462 4 7 329
1926249N10129 1926 40 WP MM NOT_NAMED 1926-09-10 06:00:00 NR 20.2404 119.320 main 238 212 __________P___ -1 20.2404 119.320 4 7 341
1926249N10129 1926 40 WP MM NOT_NAMED 1926-09-10 09:00:00 NR 20.5802 119.226 main 212 205 __________P___ -1 20.5802 119.226 4 7 346
1926249N10129 1926 40 WP MM NOT_NAMED 1926-09-10 10:00:00 NR 20.7000 119.200 main 205 191 __________O___ -1 20.7000 119.200 4 8 347
1926249N10129 1926 40 WP MM NOT_NAMED 1926-09-10 12:00:00 NR 20.9542 119.135 main 193 174 __________P___ -1 20.9542 119.135 4 8 349
1926249N10129 1926 40 WP MM NOT_NAMED 1926-09-10 15:00:00 NR 21.3611 119.062 main 174 155 __________P___ -1 21.3611 119.062 4 8 351
1926249N10129 1926 40 WP MM NOT_NAMED 1926-09-10 18:00:00 NR 21.7764 119.001 main 155 140 __________P___ -1 21.7764 119.001 4 8 351
1926249N10129 1926 40 WP MM NOT_NAMED 1926-09-10 21:00:00 NR 22.1751 118.930 main 147 144 __________P___ -1 22.1751 118.930 4 8 350
1926249N10129 1926 40 WP MM NOT_NAMED 1926-09-10 22:00:00 NR 22.3000 118.900 main 144 137 __________O___ -1 22.3000 118.900 4 7 344
1926249N10129 1926 40 WP MM NOT_NAMED 1926-09-11 00:00:00 NR 22.5280 118.827 main 147 140 __________P___ -1 22.5280 118.827 4 7 341
1926249N10129 1926 40 WP MM NOT_NAMED 1926-09-11 03:00:00 NR 22.8449 118.700 main 147 113 __________P___ -1 22.8449 118.700 4 7 337
1926249N10129 1926 40 WP MM NOT_NAMED 1926-09-11 06:00:00 NR 23.1373 118.548 main 113 82 __________P___ -1 23.1373 118.548 4 6 332
1926249N10129 1926 40 WP MM NOT_NAMED 1926-09-11 09:00:00 NR 23.4116 118.367 main 82 67 __________P___ -1 23.4116 118.367 4 6 328
1926249N10129 1926 40 WP MM NOT_NAMED 1926-09-11 10:00:00 NR 23.5000 118.300 main 67 45 __________O___ -1 23.5000 118.300 4 7 323
1926249N10129 1926 40 WP MM NOT_NAMED 1926-09-11 12:00:00 NR 23.6736 118.156 main 45 10 __________P___ -1 23.6736 118.156 4 7 321
1926249N10129 1926 40 WP MM NOT_NAMED 1926-09-11 15:00:00 NR 23.9274 117.918 main 10 0 __________P___ -1 23.9274 117.918 4 7 318
1926249N10129 1926 40 WP MM NOT_NAMED 1926-09-11 18:00:00 NR 24.1751 117.660 main 0 0 __________P___ -1 24.1751 117.660 4 7 316
1926249N10129 1926 40 WP MM NOT_NAMED 1926-09-11 21:00:00 NR 24.4191 117.391 main 0 0 __________P___ -1 24.4191 117.391 4 7 315
1926249N10129 1926 40 WP MM NOT_NAMED 1926-09-11 22:00:00 NR 24.5000 117.300 main 0 __________O___ -1 24.5000 117.300 4 7 316

デジタル台風データ・検索

IBTrACS Databaseについて

本データベースは、米国NOAAが公開する1842年以降の世界の熱帯低気圧のベストトラックデータアーカイブInternational Best Track Archive for Climate Stewardship (IBTrACS)を、ウェブで閲覧しやすい形式に変換したものです。

最終更新日:2021-12-03